createdAt,value
2023-03-21T00:00:59.358Z,78.21
2023-03-21T00:04:58.518Z,76.88
2023-03-21T00:08:57.156Z,77.33
2023-03-21T00:12:52.169Z,77.61
2023-03-21T00:16:48.725Z,78.11
2023-03-21T00:20:51.271Z,78.00
2023-03-21T00:24:48.845Z,78.21
2023-03-21T00:28:45.455Z,78.68
2023-03-21T00:32:49.294Z,78.95
2023-03-21T00:36:50.384Z,78.92
2023-03-21T00:40:32.968Z,78.47
2023-03-21T00:44:38.763Z,78.21
2023-03-21T00:48:28.668Z,77.97
2023-03-21T00:52:40.610Z,77.97
2023-03-21T00:56:44.826Z,80.40
2023-03-21T01:00:41.291Z,82.54
2023-03-21T01:04:31.926Z,84.65
2023-03-21T01:08:31.261Z,85.64
2023-03-21T01:12:23.922Z,86.21
2023-03-21T01:16:09.250Z,87.37
2023-03-21T01:20:04.693Z,87.02
2023-03-21T01:23:52.629Z,87.07
2023-03-21T01:27:40.973Z,86.80
2023-03-21T01:31:47.839Z,87.16
2023-03-21T01:35:48.029Z,86.18
2023-03-21T01:39:40.430Z,86.50
2023-03-21T01:43:42.953Z,86.20
2023-03-21T01:47:46.615Z,85.76
2023-03-21T01:51:42.617Z,85.47
2023-03-21T01:55:39.635Z,85.11
2023-03-21T01:59:43.458Z,85.94
2023-03-21T02:03:47.266Z,86.18
2023-03-21T02:07:48.358Z,85.65
2023-03-21T02:11:38.113Z,85.47
2023-03-21T02:15:34.608Z,85.53
2023-03-21T02:19:32.814Z,85.51
2023-03-21T02:23:42.311Z,86.46
2023-03-21T02:28:05.882Z,86.52
2023-03-21T02:32:34.880Z,86.19
2023-03-21T02:37:18.263Z,86.14
2023-03-21T02:41:40.068Z,86.13
2023-03-21T02:46:24.276Z,86.50
2023-03-21T02:50:22.423Z,85.63
2023-03-21T02:54:35.100Z,85.28
2023-03-21T02:58:42.816Z,85.32
2023-03-21T03:02:47.562Z,85.37
2023-03-21T03:06:53.237Z,85.57
2023-03-21T03:11:10.994Z,85.52
2023-03-21T03:15:16.214Z,86.19
2023-03-21T03:19:34.481Z,86.01
2023-03-21T03:23:45.963Z,86.11
2023-03-21T03:27:41.841Z,86.05
2023-03-21T03:31:45.470Z,85.94
2023-03-21T03:35:26.268Z,85.10
2023-03-21T03:39:15.940Z,85.08
2023-03-21T03:43:14.905Z,85.46
2023-03-21T03:47:04.261Z,85.63
2023-03-21T03:51:03.618Z,85.63
2023-03-21T03:55:07.332Z,85.83
2023-03-21T03:58:58.180Z,85.98
2023-03-21T04:02:46.009Z,86.02
2023-03-21T04:06:29.323Z,86.62
2023-03-21T04:10:29.402Z,86.35
2023-03-21T04:14:44.093Z,85.83
2023-03-21T04:18:39.547Z,86.11
2023-03-21T04:22:34.686Z,85.84
2023-03-21T04:26:38.530Z,85.71
2023-03-21T04:30:09.962Z,85.96
2023-03-21T04:34:00.122Z,85.79
2023-03-21T04:37:49.056Z,86.11
2023-03-21T04:41:44.291Z,85.95
2023-03-21T04:45:48.084Z,85.69
2023-03-21T04:49:45.168Z,85.93
2023-03-21T04:53:39.969Z,86.53
2023-03-21T04:57:39.869Z,86.45
2023-03-21T05:01:34.079Z,86.34
2023-03-21T05:05:11.967Z,86.34
2023-03-21T05:09:04.218Z,86.32
2023-03-21T05:13:00.457Z,86.10
2023-03-21T05:17:03.385Z,86.34
2023-03-21T05:20:53.230Z,86.45
2023-03-21T05:24:42.883Z,86.32
2023-03-21T05:28:27.341Z,86.28
2023-03-21T05:32:31.387Z,86.14
2023-03-21T05:36:55.115Z,85.84
2023-03-21T05:40:43.460Z,85.88
2023-03-21T05:44:37.300Z,85.83
2023-03-21T05:48:34.601Z,85.95
2023-03-21T05:52:38.174Z,85.78
2023-03-21T05:57:02.073Z,85.47
2023-03-21T06:01:06.336Z,85.45
2023-03-21T06:05:26.033Z,85.53
2023-03-21T06:09:38.259Z,85.20
2023-03-21T06:13:32.814Z,85.61
2023-03-21T06:17:36.477Z,84.40
2023-03-21T06:21:30.182Z,84.57
2023-03-21T06:25:04.312Z,84.07
2023-03-21T06:28:23.892Z,84.15
2023-03-21T06:32:05.841Z,84.32
2023-03-21T06:35:35.742Z,84.45
2023-03-21T06:39:00.321Z,84.05
2023-03-21T06:42:32.691Z,84.00
2023-03-21T06:46:06.265Z,83.84
2023-03-21T06:49:46.588Z,83.40
2023-03-21T06:53:20.694Z,82.32
2023-03-21T06:56:32.545Z,80.99
2023-03-21T06:59:41.160Z,80.34
2023-03-21T07:02:48.771Z,79.61
2023-03-21T07:05:53.751Z,79.32
2023-03-21T07:08:59.809Z,78.50
2023-03-21T07:12:10.183Z,78.46
2023-03-21T07:15:13.115Z,78.10
2023-03-21T07:18:23.730Z,79.10
2023-03-21T07:21:26.657Z,78.79
2023-03-21T07:24:29.562Z,78.16
2023-03-21T07:27:51.099Z,78.82
2023-03-21T07:31:05.451Z,78.57
2023-03-21T07:34:17.845Z,79.31
2023-03-21T07:37:23.991Z,79.51
2023-03-21T07:40:50.667Z,79.33
2023-03-21T07:43:59.352Z,79.35
2023-03-21T07:47:07.010Z,79.63
2023-03-21T07:51:05.811Z,79.40
2023-03-21T07:55:03.116Z,79.63
2023-03-21T07:58:46.178Z,79.68
2023-03-21T08:02:45.545Z,79.74
2023-03-21T08:06:16.881Z,79.68
2023-03-21T08:09:48.217Z,80.17
2023-03-21T08:13:37.962Z,80.19
2023-03-21T08:17:10.791Z,80.80
2023-03-21T08:21:14.785Z,80.95
2023-03-21T08:24:59.575Z,81.56
2023-03-21T08:29:03.331Z,81.58
2023-03-21T08:33:00.504Z,81.69
2023-03-21T08:36:51.054Z,81.36
2023-03-21T08:40:02.581Z,81.81
2023-03-21T08:44:06.250Z,82.13
2023-03-21T08:48:10.238Z,82.35
2023-03-21T08:52:11.749Z,82.10
2023-03-21T08:56:10.339Z,82.51
2023-03-21T09:00:14.110Z,83.22
2023-03-21T09:04:04.423Z,84.17
2023-03-21T09:08:07.685Z,84.42
2023-03-21T09:11:53.879Z,84.52
2023-03-21T09:15:37.168Z,84.46
2023-03-21T09:19:38.738Z,84.23
2023-03-21T09:23:56.576Z,84.19
2023-03-21T09:27:37.076Z,84.03
2023-03-21T09:30:54.811Z,83.82
2023-03-21T09:34:09.011Z,83.60
2023-03-21T09:37:22.056Z,82.88
2023-03-21T09:40:51.779Z,81.97
2023-03-21T09:44:32.052Z,81.42
2023-03-21T09:47:49.795Z,81.32
2023-03-21T09:50:55.929Z,81.35
2023-03-21T09:54:25.536Z,80.53
2023-03-21T09:57:43.252Z,80.08
2023-03-21T10:00:56.716Z,78.67
2023-03-21T10:04:14.244Z,78.22
2023-03-21T10:10:54.678Z,78.28
2023-03-21T10:14:07.907Z,78.77
2023-03-21T10:17:43.165Z,79.35
2023-03-21T10:20:50.729Z,78.88
2023-03-21T10:24:05.366Z,78.93
2023-03-21T10:27:13.436Z,78.47
2023-03-21T10:30:32.416Z,77.77
2023-03-21T10:33:47.734Z,77.11
2023-03-21T10:37:04.639Z,76.83
2023-03-21T10:40:15.685Z,76.34
2023-03-21T10:43:37.553Z,75.90
2023-03-21T10:46:55.425Z,74.97
2023-03-21T10:50:08.927Z,73.76
2023-03-21T10:53:25.412Z,72.84
2023-03-21T10:56:31.856Z,71.68
2023-03-21T10:59:39.943Z,69.63
2023-03-21T11:02:46.826Z,67.98
2023-03-21T11:05:56.372Z,67.78
2023-03-21T11:09:06.114Z,66.19
2023-03-21T11:12:28.413Z,67.34
2023-03-21T11:16:05.001Z,68.05
2023-03-21T11:19:30.887Z,67.57
2023-03-21T11:22:43.596Z,67.72
2023-03-21T11:25:51.115Z,67.44
2023-03-21T11:28:55.376Z,67.24
2023-03-21T11:32:22.727Z,67.53
2023-03-21T11:35:32.551Z,66.69
2023-03-21T11:38:40.254Z,65.62
2023-03-21T11:41:47.415Z,64.79
2023-03-21T11:44:59.980Z,64.20
2023-03-21T11:48:13.005Z,65.27
2023-03-21T11:51:21.867Z,64.94
2023-03-21T11:54:30.932Z,65.93
2023-03-21T11:57:39.958Z,65.61
2023-03-21T12:00:54.884Z,63.91
2023-03-21T12:04:44.937Z,63.68
2023-03-21T12:08:33.224Z,63.53
2023-03-21T12:11:39.019Z,64.19
2023-03-21T12:14:57.646Z,63.42
2023-03-21T12:18:12.485Z,64.06
2023-03-21T12:22:09.418Z,64.04
2023-03-21T12:25:20.357Z,63.50
2023-03-21T12:28:33.515Z,62.52
2023-03-21T12:32:15.551Z,63.04
2023-03-21T12:35:46.109Z,63.41
2023-03-21T12:39:04.375Z,64.18
2023-03-21T12:42:36.771Z,64.14
2023-03-21T12:45:47.283Z,64.66
2023-03-21T12:49:00.514Z,65.66
2023-03-21T12:52:32.894Z,66.88
2023-03-21T12:55:39.591Z,67.89
2023-03-21T12:58:59.088Z,68.43
2023-03-21T13:02:31.273Z,68.76
2023-03-21T13:05:39.101Z,68.59
2023-03-21T13:09:01.922Z,67.96
2023-03-21T13:12:28.841Z,66.72
2023-03-21T13:15:54.791Z,65.99
2023-03-21T13:19:13.379Z,66.37
2023-03-21T13:22:31.445Z,66.10
2023-03-21T13:25:42.537Z,65.87
2023-03-21T13:28:52.263Z,64.63
2023-03-21T13:32:12.507Z,64.86
2023-03-21T13:35:29.255Z,65.16
2023-03-21T13:38:40.060Z,64.90
2023-03-21T13:41:51.806Z,64.91
2023-03-21T13:44:56.765Z,64.86
2023-03-21T13:48:34.077Z,65.20
2023-03-21T13:51:40.103Z,66.02
2023-03-21T13:54:52.644Z,66.71
2023-03-21T13:57:58.834Z,66.54
2023-03-21T14:01:16.211Z,66.34
2023-03-21T14:04:41.984Z,66.35
2023-03-21T14:08:36.528Z,66.13
2023-03-21T14:11:46.709Z,65.38
2023-03-21T14:14:54.191Z,64.82
2023-03-21T14:18:16.312Z,64.83
2023-03-21T14:21:34.215Z,65.99
2023-03-21T14:24:41.356Z,66.55
2023-03-21T14:27:57.142Z,67.03
2023-03-21T14:31:07.274Z,66.81
2023-03-21T14:34:17.869Z,67.06
2023-03-21T14:37:31.850Z,66.75
2023-03-21T14:40:38.445Z,66.97
2023-03-21T14:43:47.436Z,67.12
2023-03-21T14:46:56.556Z,67.40
2023-03-21T14:50:13.611Z,67.51
2023-03-21T14:53:23.429Z,67.79
2023-03-21T14:56:39.678Z,67.79
2023-03-21T15:00:01.904Z,67.83
2023-03-21T15:03:18.790Z,67.77
2023-03-21T15:06:30.713Z,68.05
2023-03-21T15:09:38.419Z,68.38
2023-03-21T15:12:56.269Z,68.40
2023-03-21T15:16:00.465Z,68.51
2023-03-21T15:19:17.234Z,68.86
2023-03-21T15:22:57.911Z,69.02
2023-03-21T15:26:21.206Z,69.07
2023-03-21T15:29:41.986Z,69.50
2023-03-21T15:33:05.030Z,69.39
2023-03-21T15:36:10.123Z,69.24
2023-03-21T15:39:17.464Z,69.26
2023-03-21T15:43:13.243Z,69.63
2023-03-21T15:46:49.027Z,69.93
2023-03-21T15:50:19.984Z,70.28
2023-03-21T15:53:53.317Z,70.36
2023-03-21T15:57:59.890Z,70.46
2023-03-21T16:01:33.096Z,70.74
2023-03-21T16:05:27.640Z,70.95
2023-03-21T16:09:04.751Z,71.45
2023-03-21T16:12:44.331Z,71.85
2023-03-21T16:16:10.861Z,72.19
2023-03-21T16:19:52.633Z,72.22
2023-03-21T16:23:34.837Z,72.26
2023-03-21T16:27:22.576Z,72.51
2023-03-21T16:31:05.196Z,72.59
2023-03-21T16:35:01.790Z,72.61
2023-03-21T16:38:58.910Z,72.86
2023-03-21T16:42:47.628Z,72.94
2023-03-21T16:46:47.224Z,73.13
2023-03-21T16:50:35.750Z,73.28
2023-03-21T16:54:24.984Z,73.92
2023-03-21T16:58:21.654Z,74.43
2023-03-21T17:02:01.473Z,74.81
2023-03-21T17:05:55.085Z,75.21
2023-03-21T17:09:15.618Z,74.94
2023-03-21T17:12:54.437Z,75.06
2023-03-21T17:16:33.236Z,75.06
2023-03-21T17:20:05.920Z,75.30
2023-03-21T17:23:45.825Z,75.62
2023-03-21T17:27:27.360Z,75.74
2023-03-21T17:31:30.963Z,75.93
2023-03-21T17:35:34.740Z,76.20
2023-03-21T17:39:36.504Z,76.59
2023-03-21T17:43:01.387Z,76.51
2023-03-21T17:47:03.961Z,76.60
2023-03-21T17:51:03.438Z,76.90
2023-03-21T17:54:25.124Z,76.91
2023-03-21T17:58:05.515Z,76.90
2023-03-21T18:01:52.866Z,77.10
2023-03-21T18:05:43.407Z,77.32
2023-03-21T18:09:21.731Z,77.21
2023-03-21T18:12:48.837Z,77.47
2023-03-21T18:16:37.925Z,77.49
2023-03-21T18:20:51.707Z,77.75
2023-03-21T18:24:27.324Z,77.99
2023-03-21T18:28:31.380Z,78.24
2023-03-21T18:32:11.989Z,78.42
2023-03-21T18:35:46.764Z,78.66
2023-03-21T18:39:50.669Z,78.44
2023-03-21T18:44:05.868Z,78.64
2023-03-21T18:47:55.503Z,78.98
2023-03-21T18:51:44.365Z,78.98
2023-03-21T18:55:45.951Z,78.81
2023-03-21T18:59:36.466Z,78.91
2023-03-21T19:03:35.885Z,79.14
2023-03-21T19:07:21.995Z,78.79
2023-03-21T19:10:53.041Z,77.96
2023-03-21T19:14:20.371Z,78.82
2023-03-21T19:25:18.418Z,78.88
2023-03-21T19:29:22.200Z,78.84
2023-03-21T19:33:16.981Z,79.46
2023-03-21T19:36:57.863Z,80.17
2023-03-21T19:40:31.831Z,80.19
2023-03-21T19:44:02.958Z,79.98
2023-03-21T19:48:06.643Z,79.53
2023-03-21T19:52:00.641Z,79.84
2023-03-21T19:56:16.494Z,79.97
2023-03-21T19:59:55.197Z,79.76
2023-03-21T20:03:41.885Z,80.33
2023-03-21T20:07:45.674Z,80.61
2023-03-21T20:11:27.889Z,80.28
2023-03-21T20:15:26.843Z,80.28
2023-03-21T20:19:53.066Z,80.33
2023-03-21T20:23:39.864Z,80.45
2023-03-21T20:27:08.753Z,80.36
2023-03-21T20:31:02.647Z,79.91
2023-03-21T20:35:10.291Z,80.24
2023-03-21T20:38:58.795Z,81.15
2023-03-21T20:42:32.764Z,80.86
2023-03-21T20:46:22.997Z,80.94
2023-03-21T20:50:12.980Z,81.04
2023-03-21T20:57:20.044Z,81.72
2023-03-21T21:01:16.502Z,81.62
2023-03-21T21:05:35.446Z,80.94
2023-03-21T21:09:37.902Z,80.85
2023-03-21T21:13:41.472Z,81.02
2023-03-21T21:18:02.138Z,81.75
2023-03-21T21:21:59.268Z,82.59
2023-03-21T21:25:48.602Z,82.46
2023-03-21T21:29:31.282Z,82.32
2023-03-21T21:33:27.079Z,82.46
2023-03-21T21:37:23.407Z,82.65
2023-03-21T21:41:29.736Z,82.51
2023-03-21T21:45:18.348Z,82.39
2023-03-21T21:49:13.661Z,82.56
2023-03-21T21:53:04.377Z,82.67
2023-03-21T21:57:08.137Z,82.81
2023-03-21T22:00:56.330Z,82.59
2023-03-21T22:04:49.694Z,82.22
2023-03-21T22:08:35.221Z,82.66
2023-03-21T22:12:17.965Z,82.80
2023-03-21T22:16:14.416Z,82.86
2023-03-21T22:20:06.514Z,83.00
2023-03-21T22:23:38.708Z,82.77
2023-03-21T22:27:29.002Z,83.19
2023-03-21T22:31:27.253Z,83.03
2023-03-21T22:35:23.547Z,82.82
2023-03-21T22:39:27.305Z,82.97
2023-03-21T22:43:16.879Z,82.93
2023-03-21T22:47:20.483Z,82.86
2023-03-21T22:51:24.117Z,83.02
2023-03-21T22:55:12.293Z,83.44
2023-03-21T22:59:15.858Z,83.97
2023-03-21T23:03:10.846Z,84.91
2023-03-21T23:07:02.153Z,84.63
2023-03-21T23:11:05.880Z,85.36
2023-03-21T23:15:08.351Z,84.55
2023-03-21T23:19:04.963Z,85.24
2023-03-21T23:23:11.651Z,84.70
2023-03-21T23:27:08.479Z,85.12
2023-03-21T23:31:05.060Z,85.04
2023-03-21T23:34:53.930Z,84.59
2023-03-21T23:38:41.933Z,84.55
2023-03-21T23:42:39.631Z,84.58
2023-03-21T23:46:43.230Z,84.68
2023-03-21T23:50:39.893Z,84.63
2023-03-21T23:54:43.734Z,84.73
2023-03-21T23:58:29.503Z,84.18
